createdAt,value
2018-06-15T00:01:05.918Z,74.10
2018-06-15T00:03:35.789Z,74.60
2018-06-15T00:06:07.121Z,74.30
2018-06-15T00:08:37.228Z,74.30
2018-06-15T00:11:08.520Z,74.40
2018-06-15T00:13:39.997Z,74.30
2018-06-15T00:16:11.558Z,74.00
2018-06-15T00:18:42.528Z,75.00
2018-06-15T00:21:13.581Z,74.60
2018-06-15T00:23:43.442Z,74.50
2018-06-15T00:26:13.213Z,74.90
2018-06-15T00:28:45.996Z,74.60
2018-06-15T00:31:16.089Z,74.20
2018-06-15T00:33:46.795Z,73.80
2018-06-15T00:36:19.481Z,73.90
2018-06-15T00:38:49.943Z,73.80
2018-06-15T00:41:19.809Z,73.90
2018-06-15T00:43:52.810Z,73.60
2018-06-15T00:46:23.737Z,74.40
2018-06-15T00:48:55.349Z,75.50
2018-06-15T00:51:34.672Z,75.00
2018-06-15T00:54:05.500Z,75.00
2018-06-15T00:56:35.624Z,74.60
2018-06-15T00:59:05.540Z,74.70
2018-06-15T01:01:35.970Z,74.70
2018-06-15T01:04:05.936Z,73.90
2018-06-15T01:06:36.803Z,74.20
2018-06-15T01:09:09.020Z,74.70
2018-06-15T01:11:39.058Z,75.10
2018-06-15T01:14:08.949Z,75.50
2018-06-15T01:16:42.162Z,75.80
2018-06-15T01:19:23.445Z,75.40
2018-06-15T01:21:58.142Z,74.70
2018-06-15T01:24:31.012Z,75.80
2018-06-15T01:27:04.426Z,76.40
2018-06-15T01:29:37.467Z,76.30
2018-06-15T01:32:09.027Z,74.90
2018-06-15T01:34:41.877Z,76.40
2018-06-15T01:37:13.167Z,76.10
2018-06-15T01:39:46.193Z,76.30
2018-06-15T01:43:05.187Z,76.30
2018-06-15T01:45:35.464Z,76.40
2018-06-15T01:48:06.006Z,76.70
2018-06-15T01:55:34.434Z,75.80
2018-06-15T01:58:04.207Z,75.40
2018-06-15T02:00:34.093Z,75.20
2018-06-15T02:03:06.083Z,75.50
2018-06-15T02:05:35.809Z,76.30
2018-06-15T02:08:05.560Z,76.00
2018-06-15T02:10:35.708Z,75.70
2018-06-15T02:13:05.468Z,75.70
2018-06-15T02:15:35.388Z,75.30
2018-06-15T02:18:05.564Z,74.80
2018-06-15T02:20:36.139Z,75.10
2018-06-15T02:23:06.086Z,75.30
2018-06-15T02:25:36.179Z,74.80
2018-06-15T02:28:06.908Z,75.00
2018-06-15T02:30:37.010Z,75.10
2018-06-15T02:33:06.830Z,75.50
2018-06-15T02:35:37.416Z,75.90
2018-06-15T02:38:07.292Z,75.30
2018-06-15T02:40:38.146Z,75.40
2018-06-15T02:43:08.582Z,76.80
2018-06-15T02:45:39.481Z,77.30
2018-06-15T02:48:09.292Z,76.30
2018-06-15T02:50:39.163Z,76.20
2018-06-15T02:53:09.022Z,75.90
2018-06-15T02:55:39.594Z,75.90
2018-06-15T02:58:09.717Z,75.70
2018-06-15T03:00:40.238Z,75.60
2018-06-15T03:03:10.508Z,75.80
2018-06-15T03:05:41.146Z,76.40
2018-06-15T03:08:13.247Z,76.40
2018-06-15T03:10:43.129Z,76.30
2018-06-15T03:13:13.101Z,76.40
2018-06-15T03:15:43.365Z,76.00
2018-06-15T03:18:13.871Z,76.00
2018-06-15T03:20:51.567Z,76.30
2018-06-15T03:23:21.500Z,76.10
2018-06-15T03:25:51.455Z,77.50
2018-06-15T03:28:21.272Z,76.70
2018-06-15T03:30:51.191Z,76.80
2018-06-15T03:33:35.063Z,76.70
2018-06-15T03:36:04.817Z,76.50
2018-06-15T03:38:34.654Z,76.50
2018-06-15T03:41:05.684Z,76.30
2018-06-15T03:43:35.430Z,76.40
2018-06-15T03:46:05.924Z,76.70
2018-06-15T03:48:36.421Z,77.30
2018-06-15T03:51:06.647Z,77.40
2018-06-15T03:53:36.585Z,77.50
2018-06-15T03:56:07.449Z,77.20
2018-06-15T03:58:37.764Z,76.80
2018-06-15T04:01:08.150Z,77.70
2018-06-15T04:03:38.055Z,76.90
2018-06-15T04:06:08.193Z,76.90
2018-06-15T04:08:38.173Z,77.10
2018-06-15T04:11:08.385Z,77.20
2018-06-15T04:13:38.645Z,78.60
2018-06-15T04:16:08.860Z,79.50
2018-06-15T04:18:38.948Z,80.30
2018-06-15T04:21:10.699Z,79.40
2018-06-15T04:23:40.832Z,78.30
2018-06-15T04:26:10.982Z,77.70
2018-06-15T04:31:10.633Z,77.30
2018-06-15T04:33:42.959Z,77.10
2018-06-15T04:36:12.821Z,77.00
2018-06-15T04:38:44.124Z,76.90
2018-06-15T04:41:17.056Z,77.00
2018-06-15T04:43:47.036Z,75.80
2018-06-15T04:46:17.797Z,77.60
2018-06-15T04:48:48.996Z,77.80
2018-06-15T04:51:19.061Z,77.80
2018-06-15T04:53:50.002Z,77.90
2018-06-15T04:56:19.804Z,76.60
2018-06-15T04:59:52.509Z,76.40
2018-06-15T05:02:23.209Z,76.20
2018-06-15T05:04:53.073Z,75.90
2018-06-15T05:07:27.478Z,75.90
2018-06-15T05:09:59.360Z,75.80
2018-06-15T05:12:30.983Z,75.00
2018-06-15T05:15:02.475Z,74.70
2018-06-15T05:17:33.919Z,74.60
2018-06-15T05:20:07.427Z,72.50
2018-06-15T05:22:41.503Z,73.10
2018-06-15T05:25:12.241Z,72.80
2018-06-15T05:27:59.151Z,72.70
2018-06-15T05:30:29.326Z,72.80
2018-06-15T05:32:59.723Z,74.00
2018-06-15T05:35:33.434Z,75.00
2018-06-15T05:38:03.559Z,73.50
2018-06-15T05:40:33.800Z,72.20
2018-06-15T05:43:04.335Z,72.20
2018-06-15T05:45:34.319Z,71.20
2018-06-15T05:48:06.160Z,71.20
2018-06-15T05:50:37.910Z,70.00
2018-06-15T05:53:08.625Z,70.70
2018-06-15T05:55:40.467Z,67.50
2018-06-15T05:58:11.100Z,68.90
2018-06-15T06:00:41.362Z,68.20
2018-06-15T06:03:13.632Z,67.40
2018-06-15T06:05:44.181Z,67.50
2018-06-15T06:08:14.997Z,67.10
2018-06-15T06:10:45.021Z,67.10
2018-06-15T06:13:15.786Z,67.20
2018-06-15T06:15:47.512Z,67.80
2018-06-15T06:18:18.242Z,67.30
2018-06-15T06:20:48.504Z,67.60
2018-06-15T06:23:19.617Z,66.20
2018-06-15T06:25:50.027Z,65.60
2018-06-15T06:28:24.411Z,64.20
2018-06-15T06:30:58.829Z,64.10
2018-06-15T06:33:34.697Z,63.10
2018-06-15T06:36:05.634Z,64.80
2018-06-15T06:38:36.478Z,64.50
2018-06-15T06:43:39.540Z,64.80
2018-06-15T06:46:10.419Z,62.80
2018-06-15T06:51:10.110Z,62.90
2018-06-15T06:53:41.586Z,64.00
2018-06-15T06:56:12.182Z,63.70
2018-06-15T06:58:43.429Z,66.00
2018-06-15T07:01:13.480Z,64.20
2018-06-15T07:03:44.838Z,63.40
2018-06-15T07:06:16.351Z,64.70
2018-06-15T07:08:46.454Z,64.40
2018-06-15T07:11:20.642Z,63.90
2018-06-15T07:13:51.779Z,62.80
2018-06-15T07:16:21.696Z,60.70
2018-06-15T07:18:52.068Z,60.20
2018-06-15T07:21:23.473Z,59.40
2018-06-15T07:23:54.645Z,60.00
2018-06-15T07:26:27.265Z,60.50
2018-06-15T07:29:00.478Z,59.80
2018-06-15T07:31:31.859Z,59.20
2018-06-15T07:34:09.970Z,60.20
2018-06-15T07:36:40.635Z,60.20
2018-06-15T07:39:13.645Z,60.70
2018-06-15T07:41:47.487Z,62.10
2018-06-15T07:44:18.800Z,62.10
2018-06-15T07:46:49.353Z,61.70
2018-06-15T07:49:22.313Z,60.60
2018-06-15T07:51:54.526Z,58.30
2018-06-15T07:54:25.679Z,58.20
2018-06-15T07:57:00.032Z,59.30
2018-06-15T07:59:31.026Z,61.40
2018-06-15T08:02:02.735Z,59.60
2018-06-15T08:04:35.028Z,59.90
2018-06-15T08:07:08.751Z,59.00
2018-06-15T08:09:41.671Z,59.80
2018-06-15T08:12:14.255Z,60.30
2018-06-15T08:14:47.541Z,60.00
2018-06-15T08:17:19.481Z,58.90
2018-06-15T08:19:52.487Z,58.40
2018-06-15T08:22:22.914Z,56.90
2018-06-15T08:24:54.483Z,56.30
2018-06-15T08:27:25.766Z,55.60
2018-06-15T08:30:00.437Z,55.50
2018-06-15T08:32:33.144Z,53.30
2018-06-15T08:35:07.359Z,55.30
2018-06-15T08:37:38.544Z,53.40
2018-06-15T08:40:12.741Z,53.60
2018-06-15T08:42:46.331Z,54.00
2018-06-15T08:45:18.768Z,55.10
2018-06-15T08:47:49.858Z,55.20
2018-06-15T08:50:20.491Z,55.20
2018-06-15T08:52:53.008Z,54.40
2018-06-15T08:55:23.736Z,53.60
2018-06-15T08:57:57.610Z,53.60
2018-06-15T09:00:29.315Z,52.80
2018-06-15T09:03:07.019Z,53.50
2018-06-15T09:05:39.248Z,53.50
2018-06-15T09:10:43.459Z,55.20
2018-06-15T09:13:15.553Z,55.60
2018-06-15T09:15:48.510Z,53.80
2018-06-15T09:18:20.418Z,52.80
2018-06-15T09:20:53.401Z,53.00
2018-06-15T09:23:27.041Z,52.50
2018-06-15T09:25:58.220Z,52.10
2018-06-15T09:28:28.578Z,53.60
2018-06-15T09:30:59.766Z,54.20
2018-06-15T09:33:30.718Z,53.60
2018-06-15T09:38:32.765Z,52.50
2018-06-15T09:41:05.813Z,55.70
2018-06-15T09:43:37.466Z,62.00
2018-06-15T09:46:08.286Z,61.30
2018-06-15T09:51:16.061Z,61.80
2018-06-15T09:53:51.483Z,61.00
2018-06-15T10:01:54.833Z,58.70
2018-06-15T10:04:27.362Z,56.20
2018-06-15T10:07:03.762Z,55.20
2018-06-15T10:09:42.236Z,55.00
2018-06-15T10:12:21.195Z,60.00
2018-06-15T10:14:55.485Z,64.10
2018-06-15T10:17:30.849Z,61.80
2018-06-15T10:20:08.891Z,59.90
2018-06-15T10:22:40.738Z,58.30
2018-06-15T10:25:14.180Z,57.80
2018-06-15T10:27:45.089Z,57.30
2018-06-15T10:30:16.889Z,57.40
2018-06-15T10:32:49.096Z,57.80
2018-06-15T10:35:22.926Z,57.20
2018-06-15T10:37:59.959Z,56.50
2018-06-15T10:40:37.136Z,56.20
2018-06-15T10:43:13.303Z,56.10
2018-06-15T10:45:46.348Z,55.70
2018-06-15T10:48:20.943Z,55.70
2018-06-15T10:50:53.000Z,56.00
2018-06-15T10:53:25.429Z,54.20
2018-06-15T10:55:58.794Z,52.90
2018-06-15T10:58:30.896Z,50.90
2018-06-15T11:01:03.418Z,50.80
2018-06-15T11:03:37.300Z,50.00
2018-06-15T11:06:10.056Z,50.10
2018-06-15T11:08:43.571Z,51.70
2018-06-15T11:11:14.883Z,53.80
2018-06-15T11:13:49.316Z,54.10
2018-06-15T11:16:21.935Z,52.40
2018-06-15T11:18:53.585Z,52.50
2018-06-15T11:21:28.302Z,54.10
2018-06-15T11:23:59.953Z,54.80
2018-06-15T11:26:30.872Z,57.30
2018-06-15T11:29:04.714Z,56.40
2018-06-15T11:31:48.008Z,55.70
2018-06-15T11:34:19.284Z,57.60
2018-06-15T11:36:50.593Z,57.50
2018-06-15T11:39:25.969Z,61.20
2018-06-15T11:41:56.668Z,62.30
2018-06-15T11:44:28.409Z,62.90
2018-06-15T11:47:03.331Z,62.80
2018-06-15T11:49:36.501Z,60.50
2018-06-15T11:52:08.944Z,60.30
2018-06-15T11:54:39.523Z,58.70
2018-06-15T11:57:11.511Z,58.50
2018-06-15T11:59:43.969Z,58.10
2018-06-15T12:02:16.877Z,57.20
2018-06-15T12:04:50.369Z,57.10
2018-06-15T12:07:21.988Z,57.00
2018-06-15T12:09:55.723Z,57.00
2018-06-15T12:12:28.101Z,56.00
2018-06-15T12:15:00.829Z,56.00
2018-06-15T12:17:32.733Z,55.60
2018-06-15T12:20:12.347Z,55.40
2018-06-15T12:25:48.834Z,53.70
2018-06-15T12:28:28.504Z,55.40
2018-06-15T12:31:04.628Z,56.60
2018-06-15T12:33:37.202Z,55.10
2018-06-15T12:36:08.552Z,53.70
2018-06-15T12:38:41.148Z,55.10
2018-06-15T12:41:14.487Z,54.80
2018-06-15T12:43:48.155Z,54.20
2018-06-15T12:46:23.494Z,54.50
2018-06-15T12:49:04.642Z,54.80
2018-06-15T12:51:45.211Z,53.50
2018-06-15T12:54:25.097Z,53.00
2018-06-15T12:57:00.074Z,52.90
2018-06-15T12:59:37.572Z,52.20
2018-06-15T13:02:21.439Z,51.40
2018-06-15T13:04:56.740Z,49.80
2018-06-15T13:07:30.701Z,48.00
2018-06-15T13:10:08.713Z,47.70
2018-06-15T13:12:39.605Z,48.00
2018-06-15T13:15:18.542Z,48.30
2018-06-15T13:17:53.639Z,50.40
2018-06-15T13:20:25.036Z,50.30
2018-06-15T13:22:59.174Z,49.40
2018-06-15T13:25:31.954Z,49.30
2018-06-15T13:28:08.185Z,48.70
2018-06-15T13:30:40.400Z,47.90
2018-06-15T13:33:17.906Z,47.60
2018-06-15T13:35:50.280Z,47.60
2018-06-15T13:38:25.437Z,47.10
2018-06-15T13:40:58.653Z,46.90
2018-06-15T13:43:34.722Z,46.80
2018-06-15T13:46:06.198Z,47.20
2018-06-15T13:48:37.542Z,47.30
2018-06-15T13:51:11.332Z,49.20
2018-06-15T13:53:43.401Z,50.00
2018-06-15T13:56:17.730Z,49.00
2018-06-15T13:58:49.490Z,47.20
2018-06-15T14:01:20.704Z,46.40
2018-06-15T14:03:55.172Z,46.60
2018-06-15T14:06:28.774Z,45.40
2018-06-15T14:08:59.529Z,46.30
2018-06-15T14:14:22.115Z,46.10
2018-06-15T14:16:55.044Z,45.10
2018-06-15T14:19:28.401Z,45.30
2018-06-15T14:22:04.857Z,45.40
2018-06-15T14:24:37.340Z,46.10
2018-06-15T14:27:11.767Z,47.70
2018-06-15T14:29:44.227Z,47.80
2018-06-15T14:32:20.482Z,48.60
2018-06-15T14:34:52.547Z,48.20
2018-06-15T14:37:45.472Z,47.10
2018-06-15T14:40:18.608Z,47.10
2018-06-15T14:42:53.182Z,46.70
2018-06-15T14:45:25.281Z,47.60
2018-06-15T14:47:59.248Z,48.30
2018-06-15T14:50:33.443Z,49.00
2018-06-15T14:53:09.519Z,47.60
2018-06-15T14:55:40.634Z,46.20
2018-06-15T14:58:11.516Z,44.80
2018-06-15T15:00:44.022Z,43.30
2018-06-15T15:03:16.668Z,45.70
2018-06-15T15:05:52.594Z,45.90
2018-06-15T15:08:25.473Z,45.50
2018-06-15T15:10:58.411Z,46.10
2018-06-15T15:13:33.850Z,45.40
2018-06-15T15:16:09.063Z,45.80
2018-06-15T15:18:42.568Z,44.70
2018-06-15T15:21:20.660Z,45.90
2018-06-15T15:24:14.777Z,47.80
2018-06-15T15:26:52.026Z,48.10
2018-06-15T15:29:26.115Z,46.30
2018-06-15T15:32:03.548Z,48.40
2018-06-15T15:34:36.873Z,48.00
2018-06-15T15:37:12.321Z,47.60
2018-06-15T15:39:43.257Z,50.40
2018-06-15T15:42:20.594Z,51.70
2018-06-15T15:44:57.677Z,53.20
2018-06-15T15:47:30.412Z,52.70
2018-06-15T15:50:06.818Z,54.00
2018-06-15T15:52:42.079Z,53.70
2018-06-15T15:55:14.465Z,52.70
2018-06-15T15:57:59.351Z,52.30
2018-06-15T16:00:31.121Z,51.00
2018-06-15T16:03:07.285Z,50.30
2018-06-15T16:05:40.283Z,48.70
2018-06-15T16:08:15.331Z,48.60
2018-06-15T16:10:48.573Z,48.90
2018-06-15T16:13:21.376Z,49.70
2018-06-15T16:15:53.015Z,50.10
2018-06-15T16:18:23.886Z,49.70
2018-06-15T16:21:07.411Z,49.00
2018-06-15T16:23:48.159Z,48.40
2018-06-15T16:26:20.035Z,47.90
2018-06-15T16:28:51.673Z,47.70
2018-06-15T16:31:23.074Z,47.90
2018-06-15T16:33:55.407Z,46.10
2018-06-15T16:36:32.350Z,48.20
2018-06-15T16:39:06.832Z,46.90
2018-06-15T16:41:39.567Z,47.60
2018-06-15T16:44:15.522Z,47.50
2018-06-15T16:46:46.131Z,48.00
2018-06-15T16:51:57.038Z,47.90
2018-06-15T16:54:27.978Z,48.00
2018-06-15T16:57:03.312Z,47.90
2018-06-15T16:59:36.517Z,48.20
2018-06-15T17:02:09.919Z,49.20
2018-06-15T17:07:47.900Z,49.00
2018-06-15T17:10:19.938Z,48.90
2018-06-15T17:12:52.404Z,50.20
2018-06-15T17:15:29.217Z,50.50
2018-06-15T17:18:02.251Z,51.10
2018-06-15T17:20:33.732Z,52.20
2018-06-15T17:23:05.424Z,52.80
2018-06-15T17:25:37.281Z,54.70
2018-06-15T17:28:08.240Z,54.80
2018-06-15T17:30:48.765Z,55.80
2018-06-15T17:33:22.167Z,55.30
2018-06-15T17:35:57.508Z,55.10
2018-06-15T17:38:31.166Z,54.20
2018-06-15T17:41:05.303Z,54.90
2018-06-15T17:43:35.281Z,55.20
2018-06-15T17:46:08.012Z,55.60
2018-06-15T17:48:42.809Z,56.20
2018-06-15T17:51:14.996Z,55.60
2018-06-15T17:53:52.772Z,55.00
2018-06-15T17:56:24.067Z,56.00
2018-06-15T17:58:55.928Z,54.90
2018-06-15T18:01:31.302Z,54.80
2018-06-15T18:04:02.616Z,55.10
2018-06-15T18:06:40.482Z,54.60
2018-06-15T18:09:16.766Z,54.70
2018-06-15T18:11:47.895Z,55.20
2018-06-15T18:14:19.059Z,55.30
2018-06-15T18:16:51.163Z,55.20
2018-06-15T18:19:26.385Z,55.30
2018-06-15T18:21:58.905Z,56.80
2018-06-15T18:24:31.081Z,56.10
2018-06-15T18:27:03.953Z,56.20
2018-06-15T18:29:34.926Z,56.10
2018-06-15T18:32:06.922Z,56.10
2018-06-15T18:34:39.845Z,57.20
2018-06-15T18:37:13.593Z,56.20
2018-06-15T18:39:45.787Z,56.20
2018-06-15T18:42:19.790Z,56.60
2018-06-15T18:44:53.860Z,56.40
2018-06-15T18:47:28.438Z,56.20
2018-06-15T18:50:00.316Z,56.40
2018-06-15T18:52:34.303Z,56.20
2018-06-15T18:55:05.888Z,57.20
2018-06-15T18:57:37.589Z,59.20
2018-06-15T19:00:18.803Z,60.50
2018-06-15T19:08:20.648Z,61.70
2018-06-15T19:10:52.628Z,62.10
2018-06-15T19:13:25.445Z,60.60
2018-06-15T19:15:57.917Z,60.50
2018-06-15T19:18:32.565Z,60.70
2018-06-15T19:21:05.798Z,60.30
2018-06-15T19:23:40.829Z,59.90
2018-06-15T19:26:13.230Z,59.80
2018-06-15T19:28:45.997Z,59.60
2018-06-15T19:31:19.662Z,59.60
2018-06-15T19:33:53.081Z,60.00
2018-06-15T19:36:25.530Z,60.60
2018-06-15T19:39:06.357Z,60.70
2018-06-15T19:41:37.830Z,61.00
2018-06-15T19:44:27.386Z,61.00
2018-06-15T19:46:57.816Z,61.20
2018-06-15T19:49:27.876Z,61.60
2018-06-15T19:51:59.696Z,62.00
2018-06-15T19:54:35.435Z,62.60
2018-06-15T19:57:07.583Z,62.30
2018-06-15T19:59:38.134Z,62.60
2018-06-15T20:02:14.008Z,63.20
2018-06-15T20:04:57.065Z,63.20
2018-06-15T20:08:00.610Z,63.50
2018-06-15T20:10:34.753Z,63.90
2018-06-15T20:13:05.441Z,63.00
2018-06-15T20:15:37.499Z,63.40
2018-06-15T20:18:09.851Z,62.60
2018-06-15T20:20:41.463Z,63.80
2018-06-15T20:23:20.984Z,63.30
2018-06-15T20:25:55.301Z,63.70
2018-06-15T20:28:32.179Z,63.50
2018-06-15T20:31:05.004Z,63.40
2018-06-15T20:33:39.975Z,65.20
2018-06-15T20:36:14.955Z,67.60
2018-06-15T20:38:49.567Z,67.50
2018-06-15T20:41:21.393Z,66.50
2018-06-15T20:43:54.963Z,65.70
2018-06-15T20:46:31.604Z,65.80
2018-06-15T20:49:06.805Z,65.80
2018-06-15T20:51:39.738Z,65.30
2018-06-15T20:54:11.312Z,66.30
2018-06-15T20:56:48.575Z,65.00
2018-06-15T20:59:19.824Z,66.50
2018-06-15T21:04:38.765Z,65.60
2018-06-15T21:07:11.069Z,65.20
2018-06-15T21:09:47.187Z,64.30
2018-06-15T21:12:24.819Z,64.90
2018-06-15T21:14:59.037Z,64.60
2018-06-15T21:17:33.250Z,64.80
2018-06-15T21:20:12.341Z,65.20
2018-06-15T21:22:46.563Z,65.20
2018-06-15T21:25:25.795Z,65.50
2018-06-15T21:28:05.058Z,65.70
2018-06-15T21:30:40.356Z,66.50
2018-06-15T21:33:13.619Z,66.30
2018-06-15T21:35:52.088Z,66.20
2018-06-15T21:38:27.413Z,66.70
2018-06-15T21:40:59.566Z,66.90
2018-06-15T21:43:32.201Z,66.70
2018-06-15T21:46:04.717Z,66.80
2018-06-15T21:48:36.253Z,66.80
2018-06-15T21:51:10.008Z,67.10
2018-06-15T21:53:41.890Z,67.60
2018-06-15T21:56:14.753Z,68.40
2018-06-15T21:58:46.644Z,68.70
2018-06-15T22:01:19.745Z,68.30
2018-06-15T22:03:54.039Z,68.20
2018-06-15T22:06:50.589Z,68.00
2018-06-15T22:09:26.582Z,67.90
2018-06-15T22:11:58.943Z,68.00
2018-06-15T22:14:30.331Z,69.00
2018-06-15T22:17:16.638Z,69.50
2018-06-15T22:19:48.295Z,69.40
2018-06-15T22:22:20.900Z,69.50
2018-06-15T22:24:59.091Z,69.20
2018-06-15T22:27:31.376Z,69.60
2018-06-15T22:30:11.504Z,69.90
2018-06-15T22:32:44.287Z,70.00
2018-06-15T22:35:15.102Z,70.10
2018-06-15T22:37:45.613Z,70.00
2018-06-15T22:40:16.390Z,69.60
2018-06-15T22:42:48.296Z,69.40
2018-06-15T22:45:18.561Z,69.60
2018-06-15T22:47:50.759Z,69.90
2018-06-15T22:50:22.160Z,70.00
2018-06-15T22:52:52.703Z,69.90
2018-06-15T22:55:23.940Z,70.40
2018-06-15T22:57:56.144Z,70.30
2018-06-15T23:00:27.266Z,70.10
2018-06-15T23:02:58.675Z,70.30
2018-06-15T23:05:29.589Z,70.20
2018-06-15T23:08:03.004Z,70.20
2018-06-15T23:10:33.437Z,70.10
2018-06-15T23:13:05.344Z,69.90
2018-06-15T23:15:35.729Z,70.00
2018-06-15T23:18:06.160Z,69.60
2018-06-15T23:20:39.658Z,69.40
2018-06-15T23:23:11.899Z,69.90
2018-06-15T23:25:43.619Z,70.40
2018-06-15T23:28:16.112Z,70.30
2018-06-15T23:30:46.093Z,70.40
2018-06-15T23:33:18.020Z,71.00
2018-06-15T23:35:48.738Z,71.10
2018-06-15T23:38:19.281Z,71.00
2018-06-15T23:40:49.792Z,71.10
2018-06-15T23:43:21.068Z,71.20
2018-06-15T23:45:52.518Z,71.30
2018-06-15T23:48:25.365Z,71.10
2018-06-15T23:50:55.805Z,71.10
2018-06-15T23:53:27.478Z,71.10
2018-06-15T23:56:00.301Z,71.30
2018-06-15T23:58:31.741Z,71.40
